Cabrillo — WBU7354 — position and weather

sailwx.info

Track history (hours):
 
Tides and Currents Weather Stations Pressure Air Temp Water Temp Dewpoint Dewpoint Depression Visibility Wind Speed Wind Dir Waves Ship Positions

Cabrillo

Owner: SAUSE BROS OCEAN TOWING CO INC, LONG BEACH, CA. More information available from US FCC via Universal Licensing System and Coast Guard Vessel Documentation Center.

Last reported at 2017-Nov-19 00:48 UTC. Time now 2017-Nov-19 01:27 UTC.
Position N 33°45' W 118°12'.

Length 19 m; draft 2.8 m.

Type: Tug. MMSI: 367004260.

Date/timePositionNaut miles runAvg speedWind from/ knotsBaromVisibWave heightAir tempDewpointWater temp
2017-Nov-19 00:48N 33°45' W 118°12'0 0.0
2017-Nov-19 00:30N 33°45' W 118°12'2 4.1
2017-Nov-19 00:00N 33°44' W 118°10'1 1.2
2017-Nov-18 23:30N 33°45' W 118°09'0 0.6
2017-Nov-18 23:00N 33°45' W 118°10'2 4.3
2017-Nov-18 22:30N 33°44' W 118°12'0 0.0
2017-Nov-17 13:23N 33°45' W 118°12'3 3.1
2017-Nov-17 12:21N 33°45' W 118°08'1 3.6
2017-Nov-17 12:00N 33°44' W 118°10'0 0.0
2017-Nov-16 16:57N 33°45' W 118°10'1 0.7
2017-Nov-16 16:06N 33°45' W 118°10'1 3.3
2017-Nov-16 15:48N 33°46' W 118°11'1 3.6
2017-Nov-16 15:25N 33°45' W 118°10'1 3.3
2017-Nov-16 15:00N 33°44' W 118°11'1 0.2
2017-Nov-16 09:18N 33°44' W 118°12'2 6.1
2017-Nov-16 08:56N 33°45' W 118°10'0 0.2
2017-Nov-16 08:30N 33°45' W 118°10'1 2.7
2017-Nov-16 07:59N 33°46' W 118°11'1 0.7
2017-Nov-16 07:14N 33°45' W 118°11'1 0.6
2017-Nov-16 04:59N 33°45' W 118°09'2 3.0
2017-Nov-16 04:24N 33°46' W 118°11'0 0.0
2017-Nov-16 04:00N 33°46' W 118°11'1 2.8
2017-Nov-16 03:30N 33°45' W 118°10'1 1.6
2017-Nov-16 02:54N 33°44' W 118°11'1 0.3
2017-Nov-16 00:09N 33°45' W 118°10'0 0.0
2017-Nov-16 00:00N 33°45' W 118°10'1 1.5
2017-Nov-15 23:20N 33°44' W 118°08'1 2.5
2017-Nov-15 22:51N 33°45' W 118°10'0 0.0
2017-Nov-15 18:39N 33°45' W 118°10'1 1.4
2017-Nov-15 17:42N 33°44' W 118°08'1 5.2
2017-Nov-15 17:29N 33°45' W 118°10'1 0.5
2017-Nov-15 16:30N 33°45' W 118°10'1 1.2
2017-Nov-15 15:34N 33°45' W 118°09'1 6.6
2017-Nov-15 15:28N 33°45' W 118°09'1 2.6
2017-Nov-15 15:00N 33°45' W 118°10'2 0.5
2017-Nov-15 12:02N 33°45' W 118°12'0 0.0
2017-Nov-15 11:52N 33°45' W 118°12'0 0.1
2017-Nov-15 11:29N 33°45' W 118°12'1 3.0
2017-Nov-15 11:00N 33°44' W 118°11'1 0.4
2017-Nov-15 07:38N 33°46' W 118°11'0 0.2
2017-Nov-15 07:30N 33°46' W 118°11'0 0.0
2017-Nov-15 07:00N 33°46' W 118°11'1 1.0
2017-Nov-15 06:00N 33°45' W 118°10'1 1.2
2017-Nov-15 05:00N 33°44' W 118°08'1 0.2
2017-Nov-14 22:58N 33°45' W 118°10'0 0.0
2017-Nov-14 20:38N 33°45' W 118°10'0 0.0
2017-Nov-14 20:09N 33°45' W 118°10'0 1.6
2017-Nov-14 20:00N 33°45' W 118°10'1 0.2
2017-Nov-14 17:50N 33°45' W 118°10'0 0.3
2017-Nov-14 17:27N 33°45' W 118°10'0 0.4
2017-Nov-14 16:58N 33°45' W 118°10'1 2.2
2017-Nov-14 16:30N 33°46' W 118°11'0 0.0
2017-Nov-14 15:36N 33°46' W 118°11'0 0.0
2017-Nov-14 15:20N 33°46' W 118°11'2 0.4
2017-Nov-14 11:22N 33°45' W 118°12'0 0.0
2017-Nov-14 10:52N 33°45' W 118°12'2 0.4
2017-Nov-14 05:38N 33°44' W 118°10'1 7.5
2017-Nov-14 05:30N 33°44' W 118°08'0 0.1
2017-Nov-14 04:37N 33°44' W 118°08'2 2.4
2017-Nov-14 03:40N 33°46' W 118°11'0 0.0
2017-Nov-14 03:10N 33°46' W 118°11'2 0.8
2017-Nov-14 00:43N 33°44' W 118°12'1 5.5
2017-Nov-14 00:30N 33°45' W 118°11'1 1.8
2017-Nov-14 00:00N 33°46' W 118°11'1 2.8
2017-Nov-13 23:30N 33°44' W 118°11'1 2.4
2017-Nov-13 22:57N 33°45' W 118°12'2 4.8
2017-Nov-13 22:30N 33°45' W 118°10'1 1.7
2017-Nov-13 21:56N 33°45' W 118°09'3 0.2
2017-Nov-13 02:00N 33°45' W 118°12'0 0.0
2017-Nov-13 01:27N 33°45' W 118°12'0 0.2
2017-Nov-13 00:37N 33°44' W 118°12'1 6.5
2017-Nov-13 00:29N 33°44' W 118°11'3 5.5
2017-Nov-13 00:00N 33°44' W 118°08'0 0.5
2017-Nov-12 23:14N 33°45' W 118°09'1 3.0
2017-Nov-12 23:00N 33°45' W 118°10'2 4.2
2017-Nov-12 22:29N 33°44' W 118°12'0 0.1
2017-Nov-12 18:09N 33°45' W 118°12'0 0.0
2017-Nov-12 17:50N 33°45' W 118°12'2 0.5
2017-Nov-12 14:46N 33°45' W 118°10'2 4.9
2017-Nov-12 14:25N 33°44' W 118°12'0 0.8
2017-Nov-12 14:00N 33°45' W 118°12'0 0.0
2017-Nov-12 13:30N 33°45' W 118°12'0 0.0
2017-Nov-12 12:35N 33°45' W 118°12'0 0.0
2017-Nov-12 12:30N 33°45' W 118°12'0 0.0
2017-Nov-12 11:59N 33°45' W 118°12'0 0.0
2017-Nov-12 06:23N 33°45' W 118°12'2 3.6
2017-Nov-12 05:49N 33°45' W 118°10'1 2.6
2017-Nov-12 05:21N 33°44' W 118°08'0 0.0
2017-Nov-12 04:23N 33°44' W 118°08'2 1.4
2017-Nov-12 02:55N 33°45' W 118°11'1 3.3
2017-Nov-12 02:29N 33°45' W 118°12'2 0.6
2017-Nov-11 23:11N 33°45' W 118°10'2 2.2
2017-Nov-11 22:13N 33°45' W 118°12'0 0.0
2017-Nov-11 14:03N 33°45' W 118°12'0 0.0
2017-Nov-09 12:09N 33°45' W 118°12'0 0.0
2017-Nov-09 10:59N 33°45' W 118°12'0 0.0
2017-Nov-09 08:02N 33°45' W 118°12'  
Track history (hours):
 
Tides and Currents Weather Stations Pressure Air Temp Water Temp Dewpoint Dewpoint Depression Visibility Wind Speed Wind Dir Waves Ship Positions

Cabrillo

Owner: SAUSE BROS OCEAN TOWING CO INC, LONG BEACH, CA. More information available from US FCC via Universal Licensing System and Coast Guard Vessel Documentation Center.

Last reported at 2017-Nov-19 00:48 UTC. Time now 2017-Nov-19 01:27 UTC.
Position N 33°45' W 118°12'.

Length 19 m; draft 2.8 m.

Type: Tug. MMSI: 367004260.

Date/timePositionNaut miles runAvg speedWind from/ knotsBaromVisibWave heightAir tempDewpointWater temp
2017-Nov-19 00:48N 33°45' W 118°12'0 0.0
2017-Nov-19 00:30N 33°45' W 118°12'2 4.1
2017-Nov-19 00:00N 33°44' W 118°10'1 1.2
2017-Nov-18 23:30N 33°45' W 118°09'0 0.6
2017-Nov-18 23:00N 33°45' W 118°10'2 4.3
2017-Nov-18 22:30N 33°44' W 118°12'0 0.0
2017-Nov-17 13:23N 33°45' W 118°12'3 3.1
2017-Nov-17 12:21N 33°45' W 118°08'1 3.6
2017-Nov-17 12:00N 33°44' W 118°10'0 0.0
2017-Nov-16 16:57N 33°45' W 118°10'1 0.7
2017-Nov-16 16:06N 33°45' W 118°10'1 3.3
2017-Nov-16 15:48N 33°46' W 118°11'1 3.6
2017-Nov-16 15:25N 33°45' W 118°10'1 3.3
2017-Nov-16 15:00N 33°44' W 118°11'1 0.2
2017-Nov-16 09:18N 33°44' W 118°12'2 6.1
2017-Nov-16 08:56N 33°45' W 118°10'0 0.2
2017-Nov-16 08:30N 33°45' W 118°10'1 2.7
2017-Nov-16 07:59N 33°46' W 118°11'1 0.7
2017-Nov-16 07:14N 33°45' W 118°11'1 0.6
2017-Nov-16 04:59N 33°45' W 118°09'2 3.0
2017-Nov-16 04:24N 33°46' W 118°11'0 0.0
2017-Nov-16 04:00N 33°46' W 118°11'1 2.8
2017-Nov-16 03:30N 33°45' W 118°10'1 1.6
2017-Nov-16 02:54N 33°44' W 118°11'1 0.3
2017-Nov-16 00:09N 33°45' W 118°10'0 0.0
2017-Nov-16 00:00N 33°45' W 118°10'1 1.5
2017-Nov-15 23:20N 33°44' W 118°08'1 2.5
2017-Nov-15 22:51N 33°45' W 118°10'0 0.0
2017-Nov-15 18:39N 33°45' W 118°10'1 1.4
2017-Nov-15 17:42N 33°44' W 118°08'1 5.2
2017-Nov-15 17:29N 33°45' W 118°10'1 0.5
2017-Nov-15 16:30N 33°45' W 118°10'1 1.2
2017-Nov-15 15:34N 33°45' W 118°09'1 6.6
2017-Nov-15 15:28N 33°45' W 118°09'1 2.6
2017-Nov-15 15:00N 33°45' W 118°10'2 0.5
2017-Nov-15 12:02N 33°45' W 118°12'0 0.0
2017-Nov-15 11:52N 33°45' W 118°12'0 0.1
2017-Nov-15 11:29N 33°45' W 118°12'1 3.0
2017-Nov-15 11:00N 33°44' W 118°11'1 0.4
2017-Nov-15 07:38N 33°46' W 118°11'0 0.2
2017-Nov-15 07:30N 33°46' W 118°11'0 0.0
2017-Nov-15 07:00N 33°46' W 118°11'1 1.0
2017-Nov-15 06:00N 33°45' W 118°10'1 1.2
2017-Nov-15 05:00N 33°44' W 118°08'1 0.2
2017-Nov-14 22:58N 33°45' W 118°10'0 0.0
2017-Nov-14 20:38N 33°45' W 118°10'0 0.0
2017-Nov-14 20:09N 33°45' W 118°10'0 1.6
2017-Nov-14 20:00N 33°45' W 118°10'1 0.2
2017-Nov-14 17:50N 33°45' W 118°10'0 0.3
2017-Nov-14 17:27N 33°45' W 118°10'0 0.4
2017-Nov-14 16:58N 33°45' W 118°10'1 2.2
2017-Nov-14 16:30N 33°46' W 118°11'0 0.0
2017-Nov-14 15:36N 33°46' W 118°11'0 0.0
2017-Nov-14 15:20N 33°46' W 118°11'2 0.4
2017-Nov-14 11:22N 33°45' W 118°12'0 0.0
2017-Nov-14 10:52N 33°45' W 118°12'2 0.4
2017-Nov-14 05:38N 33°44' W 118°10'1 7.5
2017-Nov-14 05:30N 33°44' W 118°08'0 0.1
2017-Nov-14 04:37N 33°44' W 118°08'2 2.4
2017-Nov-14 03:40N 33°46' W 118°11'0 0.0
2017-Nov-14 03:10N 33°46' W 118°11'2 0.8
2017-Nov-14 00:43N 33°44' W 118°12'1 5.5
2017-Nov-14 00:30N 33°45' W 118°11'1 1.8
2017-Nov-14 00:00N 33°46' W 118°11'1 2.8
2017-Nov-13 23:30N 33°44' W 118°11'1 2.4
2017-Nov-13 22:57N 33°45' W 118°12'2 4.8
2017-Nov-13 22:30N 33°45' W 118°10'1 1.7
2017-Nov-13 21:56N 33°45' W 118°09'3 0.2
2017-Nov-13 02:00N 33°45' W 118°12'0 0.0
2017-Nov-13 01:27N 33°45' W 118°12'0 0.2
2017-Nov-13 00:37N 33°44' W 118°12'1 6.5
2017-Nov-13 00:29N 33°44' W 118°11'3 5.5
2017-Nov-13 00:00N 33°44' W 118°08'0 0.5
2017-Nov-12 23:14N 33°45' W 118°09'1 3.0
2017-Nov-12 23:00N 33°45' W 118°10'2 4.2
2017-Nov-12 22:29N 33°44' W 118°12'0 0.1
2017-Nov-12 18:09N 33°45' W 118°12'0 0.0
2017-Nov-12 17:50N 33°45' W 118°12'2 0.5
2017-Nov-12 14:46N 33°45' W 118°10'2 4.9
2017-Nov-12 14:25N 33°44' W 118°12'0 0.8
2017-Nov-12 14:00N 33°45' W 118°12'0 0.0
2017-Nov-12 13:30N 33°45' W 118°12'0 0.0
2017-Nov-12 12:35N 33°45' W 118°12'0 0.0
2017-Nov-12 12:30N 33°45' W 118°12'0 0.0
2017-Nov-12 11:59N 33°45' W 118°12'0 0.0
2017-Nov-12 06:23N 33°45' W 118°12'2 3.6
2017-Nov-12 05:49N 33°45' W 118°10'1 2.6
2017-Nov-12 05:21N 33°44' W 118°08'0 0.0
2017-Nov-12 04:23N 33°44' W 118°08'2 1.4
2017-Nov-12 02:55N 33°45' W 118°11'1 3.3
2017-Nov-12 02:29N 33°45' W 118°12'2 0.6
2017-Nov-11 23:11N 33°45' W 118°10'2 2.2
2017-Nov-11 22:13N 33°45' W 118°12'0 0.0
2017-Nov-11 14:03N 33°45' W 118°12'0 0.0
2017-Nov-09 12:09N 33°45' W 118°12'0 0.0
2017-Nov-09 10:59N 33°45' W 118°12'0 0.0
2017-Nov-09 08:02N 33°45' W 118°12'  

Dump ship's entire track history